sensor_id;sensor_type;location;lat;lon;timestamp;P1;durP1;ratioP1;P2;durP2;ratioP2
8086;SDS011;4086;54.412;9.980;2022-08-11T00:00:31;4.07;;;3.33;;
8086;SDS011;4086;54.412;9.980;2022-08-11T00:03:02;4.10;;;3.70;;
8086;SDS011;4086;54.412;9.980;2022-08-11T00:05:32;3.87;;;3.43;;
8086;SDS011;4086;54.412;9.980;2022-08-11T00:07:59;4.10;;;3.80;;
8086;SDS011;4086;54.412;9.980;2022-08-11T00:10:26;3.97;;;3.67;;
8086;SDS011;4086;54.412;9.980;2022-08-11T00:12:54;4.50;;;3.83;;
8086;SDS011;4086;54.412;9.980;2022-08-11T00:15:22;4.40;;;4.00;;
8086;SDS011;4086;54.412;9.980;2022-08-11T00:17:49;4.77;;;3.90;;
8086;SDS011;4086;54.412;9.980;2022-08-11T00:20:16;4.30;;;3.67;;
8086;SDS011;4086;54.412;9.980;2022-08-11T00:22:45;5.70;;;3.80;;
8086;SDS011;4086;54.412;9.980;2022-08-11T00:25:13;3.90;;;3.60;;
8086;SDS011;4086;54.412;9.980;2022-08-11T00:27:41;3.87;;;3.57;;
8086;SDS011;4086;54.412;9.980;2022-08-11T00:30:08;4.20;;;3.90;;
8086;SDS011;4086;54.412;9.980;2022-08-11T00:32:37;4.70;;;3.90;;
8086;SDS011;4086;54.412;9.980;2022-08-11T00:35:05;4.43;;;4.03;;
8086;SDS011;4086;54.412;9.980;2022-08-11T00:37:33;4.47;;;4.07;;
8086;SDS011;4086;54.412;9.980;2022-08-11T00:40:02;4.53;;;4.00;;
8086;SDS011;4086;54.412;9.980;2022-08-11T00:42:40;3.67;;;3.37;;
8086;SDS011;4086;54.412;9.980;2022-08-11T00:45:10;3.57;;;3.37;;
8086;SDS011;4086;54.412;9.980;2022-08-11T00:47:42;4.77;;;3.80;;
8086;SDS011;4086;54.412;9.980;2022-08-11T00:50:17;3.80;;;3.40;;
8086;SDS011;4086;54.412;9.980;2022-08-11T00:52:56;3.53;;;3.23;;
8086;SDS011;4086;54.412;9.980;2022-08-11T00:55:35;3.63;;;3.23;;
8086;SDS011;4086;54.412;9.980;2022-08-11T01:01:13;3.83;;;3.53;;
8086;SDS011;4086;54.412;9.980;2022-08-11T01:03:53;3.97;;;3.67;;
8086;SDS011;4086;54.412;9.980;2022-08-11T01:06:37;4.30;;;3.77;;
8086;SDS011;4086;54.412;9.980;2022-08-11T01:12:12;5.50;;;5.00;;
8086;SDS011;4086;54.412;9.980;2022-08-11T01:26:53;4.33;;;3.90;;
8086;SDS011;4086;54.412;9.980;2022-08-11T01:38:46;4.10;;;3.73;;
8086;SDS011;4086;54.412;9.980;2022-08-11T01:41:38;3.63;;;3.33;;
8086;SDS011;4086;54.412;9.980;2022-08-11T01:44:43;3.93;;;3.60;;
8086;SDS011;4086;54.412;9.980;2022-08-11T01:47:30;3.80;;;3.50;;
8086;SDS011;4086;54.412;9.980;2022-08-11T01:50:15;4.10;;;3.73;;
8086;SDS011;4086;54.412;9.980;2022-08-11T01:52:55;4.27;;;3.67;;
8086;SDS011;4086;54.412;9.980;2022-08-11T01:55:31;4.37;;;3.50;;
8086;SDS011;4086;54.412;9.980;2022-08-11T01:58:04;3.73;;;3.43;;
8086;SDS011;4086;54.412;9.980;2022-08-11T02:00:34;3.90;;;3.60;;
8086;SDS011;4086;54.412;9.980;2022-08-11T02:03:07;4.23;;;3.77;;
8086;SDS011;4086;54.412;9.980;2022-08-11T02:05:46;3.80;;;3.50;;
8086;SDS011;4086;54.412;9.980;2022-08-11T02:08:40;3.33;;;3.03;;
8086;SDS011;4086;54.412;9.980;2022-08-11T02:11:19;3.80;;;3.40;;
8086;SDS011;4086;54.412;9.980;2022-08-11T02:13:59;3.73;;;3.43;;
8086;SDS011;4086;54.412;9.980;2022-08-11T02:16:33;5.67;;;3.47;;
8086;SDS011;4086;54.412;9.980;2022-08-11T02:19:07;3.30;;;3.00;;
8086;SDS011;4086;54.412;9.980;2022-08-11T02:21:58;3.67;;;3.37;;
8086;SDS011;4086;54.412;9.980;2022-08-11T02:24:46;4.77;;;3.27;;
8086;SDS011;4086;54.412;9.980;2022-08-11T02:27:15;3.90;;;3.20;;
8086;SDS011;4086;54.412;9.980;2022-08-11T02:29:49;4.10;;;3.47;;
8086;SDS011;4086;54.412;9.980;2022-08-11T02:32:23;4.00;;;3.70;;
8086;SDS011;4086;54.412;9.980;2022-08-11T02:35:13;3.43;;;3.17;;
8086;SDS011;4086;54.412;9.980;2022-08-11T02:37:47;3.83;;;3.47;;
8086;SDS011;4086;54.412;9.980;2022-08-11T02:40:23;4.50;;;3.43;;
8086;SDS011;4086;54.412;9.980;2022-08-11T02:43:03;4.77;;;3.40;;
8086;SDS011;4086;54.412;9.980;2022-08-11T02:45:45;3.63;;;3.30;;
8086;SDS011;4086;54.412;9.980;2022-08-11T02:48:20;3.10;;;2.90;;
8086;SDS011;4086;54.412;9.980;2022-08-11T02:51:13;3.40;;;3.10;;
8086;SDS011;4086;54.412;9.980;2022-08-11T02:53:46;3.83;;;3.40;;
8086;SDS011;4086;54.412;9.980;2022-08-11T02:56:24;4.03;;;3.37;;
8086;SDS011;4086;54.412;9.980;2022-08-11T02:59:02;3.43;;;3.23;;
8086;SDS011;4086;54.412;9.980;2022-08-11T03:01:51;3.80;;;3.50;;
8086;SDS011;4086;54.412;9.980;2022-08-11T03:04:24;3.47;;;3.20;;
8086;SDS011;4086;54.412;9.980;2022-08-11T03:06:58;3.90;;;3.60;;
8086;SDS011;4086;54.412;9.980;2022-08-11T03:12:12;3.03;;;2.83;;
8086;SDS011;4086;54.412;9.980;2022-08-11T03:15:01;4.63;;;3.83;;
8086;SDS011;4086;54.412;9.980;2022-08-11T03:17:48;3.97;;;3.63;;
8086;SDS011;4086;54.412;9.980;2022-08-11T03:20:27;3.77;;;3.40;;
8086;SDS011;4086;54.412;9.980;2022-08-11T03:22:59;3.83;;;3.50;;
8086;SDS011;4086;54.412;9.980;2022-08-11T03:25:33;3.43;;;3.13;;
8086;SDS011;4086;54.412;9.980;2022-08-11T03:28:08;3.67;;;3.37;;
8086;SDS011;4086;54.412;9.980;2022-08-11T03:30:42;3.50;;;3.20;;
8086;SDS011;4086;54.412;9.980;2022-08-11T03:33:17;3.10;;;2.90;;
8086;SDS011;4086;54.412;9.980;2022-08-11T03:36:07;3.60;;;3.30;;
8086;SDS011;4086;54.412;9.980;2022-08-11T03:38:43;3.20;;;3.00;;
8086;SDS011;4086;54.412;9.980;2022-08-11T03:41:19;3.77;;;3.40;;
8086;SDS011;4086;54.412;9.980;2022-08-11T03:44:09;4.77;;;3.33;;
8086;SDS011;4086;54.412;9.980;2022-08-11T03:46:55;3.93;;;3.63;;
8086;SDS011;4086;54.412;9.980;2022-08-11T03:49:30;3.07;;;2.83;;
8086;SDS011;4086;54.412;9.980;2022-08-11T03:52:05;3.07;;;2.70;;
8086;SDS011;4086;54.412;9.980;2022-08-11T03:54:38;3.00;;;2.80;;
8086;SDS011;4086;54.412;9.980;2022-08-11T03:57:33;3.37;;;3.13;;
8086;SDS011;4086;54.412;9.980;2022-08-11T04:00:22;3.33;;;3.10;;
8086;SDS011;4086;54.412;9.980;2022-08-11T04:03:13;3.50;;;3.20;;
8086;SDS011;4086;54.412;9.980;2022-08-11T04:09:46;2.90;;;2.70;;
8086;SDS011;4086;54.412;9.980;2022-08-11T04:15:40;5.00;;;3.00;;
8086;SDS011;4086;54.412;9.980;2022-08-11T04:21:56;3.73;;;3.43;;
8086;SDS011;4086;54.412;9.980;2022-08-11T04:24:37;3.97;;;3.30;;
8086;SDS011;4086;54.412;9.980;2022-08-11T04:27:26;3.33;;;3.03;;
8086;SDS011;4086;54.412;9.980;2022-08-11T04:30:13;5.77;;;4.03;;
8086;SDS011;4086;54.412;9.980;2022-08-11T04:33:10;10.90;;;4.27;;
8086;SDS011;4086;54.412;9.980;2022-08-11T04:36:08;5.33;;;4.37;;
8086;SDS011;4086;54.412;9.980;2022-08-11T04:38:44;8.20;;;4.63;;
8086;SDS011;4086;54.412;9.980;2022-08-11T04:41:35;7.17;;;4.00;;
8086;SDS011;4086;54.412;9.980;2022-08-11T04:47:50;3.90;;;3.50;;
8086;SDS011;4086;54.412;9.980;2022-08-11T04:50:48;6.30;;;4.30;;
8086;SDS011;4086;54.412;9.980;2022-08-11T04:53:41;5.07;;;4.00;;
8086;SDS011;4086;54.412;9.980;2022-08-11T04:56:31;6.57;;;4.00;;
8086;SDS011;4086;54.412;9.980;2022-08-11T04:59:24;6.77;;;4.20;;
8086;SDS011;4086;54.412;9.980;2022-08-11T05:02:25;5.63;;;3.47;;
8086;SDS011;4086;54.412;9.980;2022-08-11T05:05:02;5.37;;;3.77;;
8086;SDS011;4086;54.412;9.980;2022-08-11T05:08:12;4.13;;;3.70;;
8086;SDS011;4086;54.412;9.980;2022-08-11T05:11:04;4.03;;;3.43;;
8086;SDS011;4086;54.412;9.980;2022-08-11T05:13:40;6.37;;;3.33;;
8086;SDS011;4086;54.412;9.980;2022-08-11T05:16:29;3.47;;;3.13;;
8086;SDS011;4086;54.412;9.980;2022-08-11T05:19:15;3.37;;;3.00;;
8086;SDS011;4086;54.412;9.980;2022-08-11T05:22:00;3.60;;;2.90;;
8086;SDS011;4086;54.412;9.980;2022-08-11T05:24:47;5.20;;;3.40;;
8086;SDS011;4086;54.412;9.980;2022-08-11T05:27:35;3.30;;;3.00;;
8086;SDS011;4086;54.412;9.980;2022-08-11T05:30:19;3.37;;;3.07;;
8086;SDS011;4086;54.412;9.980;2022-08-11T05:33:09;3.13;;;2.90;;
8086;SDS011;4086;54.412;9.980;2022-08-11T05:35:59;3.87;;;3.57;;
8086;SDS011;4086;54.412;9.980;2022-08-11T05:38:32;3.33;;;3.13;;
8086;SDS011;4086;54.412;9.980;2022-08-11T05:41:19;3.20;;;2.93;;
8086;SDS011;4086;54.412;9.980;2022-08-11T05:44:04;3.30;;;3.00;;
8086;SDS011;4086;54.412;9.980;2022-08-11T05:46:49;3.53;;;2.97;;
8086;SDS011;4086;54.412;9.980;2022-08-11T05:49:33;3.90;;;3.60;;
8086;SDS011;4086;54.412;9.980;2022-08-11T05:52:19;3.43;;;3.13;;
8086;SDS011;4086;54.412;9.980;2022-08-11T05:55:05;3.23;;;3.00;;
8086;SDS011;4086;54.412;9.980;2022-08-11T05:57:54;3.30;;;2.90;;
8086;SDS011;4086;54.412;9.980;2022-08-11T06:00:22;3.40;;;3.10;;
8086;SDS011;4086;54.412;9.980;2022-08-11T06:02:50;2.80;;;2.60;;
8086;SDS011;4086;54.412;9.980;2022-08-11T06:05:19;3.30;;;3.00;;
8086;SDS011;4086;54.412;9.980;2022-08-11T06:07:45;3.10;;;2.80;;
8086;SDS011;4086;54.412;9.980;2022-08-11T06:10:13;3.67;;;3.37;;
8086;SDS011;4086;54.412;9.980;2022-08-11T06:12:39;3.27;;;2.97;;
8086;SDS011;4086;54.412;9.980;2022-08-11T06:15:10;3.07;;;2.70;;
8086;SDS011;4086;54.412;9.980;2022-08-11T06:17:42;4.13;;;3.20;;
8086;SDS011;4086;54.412;9.980;2022-08-11T06:20:11;2.87;;;2.60;;
8086;SDS011;4086;54.412;9.980;2022-08-11T06:22:39;2.97;;;2.77;;
8086;SDS011;4086;54.412;9.980;2022-08-11T06:25:08;3.67;;;3.10;;
8086;SDS011;4086;54.412;9.980;2022-08-11T06:27:36;3.13;;;2.60;;
8086;SDS011;4086;54.412;9.980;2022-08-11T06:30:04;2.37;;;2.27;;
8086;SDS011;4086;54.412;9.980;2022-08-11T06:32:40;2.80;;;2.50;;
8086;SDS011;4086;54.412;9.980;2022-08-11T06:35:09;2.60;;;2.50;;
8086;SDS011;4086;54.412;9.980;2022-08-11T06:37:43;3.73;;;2.70;;
8086;SDS011;4086;54.412;9.980;2022-08-11T06:40:15;2.73;;;2.43;;
8086;SDS011;4086;54.412;9.980;2022-08-11T06:42:52;2.43;;;2.23;;
8086;SDS011;4086;54.412;9.980;2022-08-11T06:45:25;2.23;;;2.13;;
8086;SDS011;4086;54.412;9.980;2022-08-11T06:47:54;2.77;;;2.30;;
8086;SDS011;4086;54.412;9.980;2022-08-11T06:50:25;4.70;;;2.33;;
8086;SDS011;4086;54.412;9.980;2022-08-11T06:53:10;3.20;;;2.40;;
8086;SDS011;4086;54.412;9.980;2022-08-11T06:55:38;2.67;;;2.20;;
8086;SDS011;4086;54.412;9.980;2022-08-11T06:58:25;2.40;;;2.30;;
8086;SDS011;4086;54.412;9.980;2022-08-11T07:01:12;2.40;;;2.20;;
8086;SDS011;4086;54.412;9.980;2022-08-11T07:03:43;2.40;;;2.27;;
8086;SDS011;4086;54.412;9.980;2022-08-11T07:06:17;2.70;;;2.50;;
8086;SDS011;4086;54.412;9.980;2022-08-11T07:12:21;2.63;;;2.30;;
8086;SDS011;4086;54.412;9.980;2022-08-11T07:15:25;2.77;;;2.23;;
8086;SDS011;4086;54.412;9.980;2022-08-11T07:18:07;2.30;;;2.10;;
8086;SDS011;4086;54.412;9.980;2022-08-11T07:21:04;2.20;;;2.10;;
8086;SDS011;4086;54.412;9.980;2022-08-11T07:23:50;2.97;;;2.43;;
8086;SDS011;4086;54.412;9.980;2022-08-11T07:26:37;2.00;;;1.90;;
8086;SDS011;4086;54.412;9.980;2022-08-11T07:29:23;2.30;;;2.17;;
8086;SDS011;4086;54.412;9.980;2022-08-11T07:31:50;2.33;;;2.07;;
8086;SDS011;4086;54.412;9.980;2022-08-11T07:34:18;2.27;;;2.10;;
8086;SDS011;4086;54.412;9.980;2022-08-11T07:36:50;3.17;;;2.20;;
8086;SDS011;4086;54.412;9.980;2022-08-11T07:39:20;2.20;;;2.00;;
8086;SDS011;4086;54.412;9.980;2022-08-11T07:41:47;2.23;;;1.93;;
8086;SDS011;4086;54.412;9.980;2022-08-11T07:44:15;2.67;;;2.10;;
8086;SDS011;4086;54.412;9.980;2022-08-11T07:46:43;2.00;;;1.90;;
8086;SDS011;4086;54.412;9.980;2022-08-11T07:49:29;2.50;;;2.30;;
8086;SDS011;4086;54.412;9.980;2022-08-11T07:52:15;3.73;;;2.10;;
8086;SDS011;4086;54.412;9.980;2022-08-11T07:54:51;2.63;;;2.27;;
8086;SDS011;4086;54.412;9.980;2022-08-11T07:57:18;1.90;;;1.80;;
8086;SDS011;4086;54.412;9.980;2022-08-11T08:00:02;3.83;;;2.10;;
8086;SDS011;4086;54.412;9.980;2022-08-11T08:02:46;2.03;;;1.93;;
8086;SDS011;4086;54.412;9.980;2022-08-11T08:05:30;2.13;;;1.87;;
8086;SDS011;4086;54.412;9.980;2022-08-11T08:08:16;2.53;;;1.80;;
8086;SDS011;4086;54.412;9.980;2022-08-11T08:11:00;1.80;;;1.70;;
8086;SDS011;4086;54.412;9.980;2022-08-11T08:13:45;2.73;;;2.13;;
8086;SDS011;4086;54.412;9.980;2022-08-11T08:16:29;2.27;;;2.07;;
8086;SDS011;4086;54.412;9.980;2022-08-11T08:19:14;1.77;;;1.67;;
8086;SDS011;4086;54.412;9.980;2022-08-11T08:21:41;1.70;;;1.63;;
8086;SDS011;4086;54.412;9.980;2022-08-11T08:24:10;2.40;;;2.03;;
8086;SDS011;4086;54.412;9.980;2022-08-11T08:26:36;2.57;;;2.00;;
8086;SDS011;4086;54.412;9.980;2022-08-11T08:29:20;2.67;;;1.80;;
8086;SDS011;4086;54.412;9.980;2022-08-11T08:32:05;3.47;;;2.00;;
8086;SDS011;4086;54.412;9.980;2022-08-11T08:34:32;2.77;;;1.90;;
8086;SDS011;4086;54.412;9.980;2022-08-11T08:36:58;2.40;;;1.93;;
8086;SDS011;4086;54.412;9.980;2022-08-11T08:39:26;2.58;;;2.03;;
8086;SDS011;4086;54.412;9.980;2022-08-11T08:41:53;2.10;;;1.90;;
8086;SDS011;4086;54.412;9.980;2022-08-11T08:44:21;1.77;;;1.67;;
8086;SDS011;4086;54.412;9.980;2022-08-11T08:46:49;2.38;;;1.98;;
8086;SDS011;4086;54.412;9.980;2022-08-11T08:49:21;2.00;;;1.90;;
8086;SDS011;4086;54.412;9.980;2022-08-11T08:51:51;2.00;;;1.90;;
8086;SDS011;4086;54.412;9.980;2022-08-11T08:54:20;2.08;;;1.70;;
8086;SDS011;4086;54.412;9.980;2022-08-11T08:56:49;1.77;;;1.60;;
8086;SDS011;4086;54.412;9.980;2022-08-11T08:59:19;1.80;;;1.70;;
8086;SDS011;4086;54.412;9.980;2022-08-11T09:01:48;2.78;;;1.95;;
8086;SDS011;4086;54.412;9.980;2022-08-11T09:04:18;1.90;;;1.80;;
8086;SDS011;4086;54.412;9.980;2022-08-11T09:06:45;1.98;;;1.80;;
8086;SDS011;4086;54.412;9.980;2022-08-11T09:09:12;1.83;;;1.73;;
8086;SDS011;4086;54.412;9.980;2022-08-11T09:11:40;1.63;;;1.52;;
8086;SDS011;4086;54.412;9.980;2022-08-11T09:14:19;3.83;;;2.13;;
8086;SDS011;4086;54.412;9.980;2022-08-11T09:16:47;2.03;;;1.65;;
8086;SDS011;4086;54.412;9.980;2022-08-11T09:19:14;1.73;;;1.58;;
8086;SDS011;4086;54.412;9.980;2022-08-11T09:21:42;1.83;;;1.42;;
8086;SDS011;4086;54.412;9.980;2022-08-11T09:24:09;2.60;;;1.80;;
8086;SDS011;4086;54.412;9.980;2022-08-11T09:26:53;3.05;;;1.92;;
8086;SDS011;4086;54.412;9.980;2022-08-11T09:29:28;2.53;;;1.70;;
8086;SDS011;4086;54.412;9.980;2022-08-11T09:31:56;1.98;;;1.60;;
8086;SDS011;4086;54.412;9.980;2022-08-11T09:34:23;2.92;;;1.85;;
8086;SDS011;4086;54.412;9.980;2022-08-11T09:36:51;2.40;;;1.70;;
8086;SDS011;4086;54.412;9.980;2022-08-11T09:39:36;1.90;;;1.70;;
8086;SDS011;4086;54.412;9.980;2022-08-11T09:42:21;2.40;;;2.00;;
8086;SDS011;4086;54.412;9.980;2022-08-11T09:45:10;2.45;;;1.73;;
8086;SDS011;4086;54.412;9.980;2022-08-11T09:47:35;1.80;;;1.70;;
8086;SDS011;4086;54.412;9.980;2022-08-11T09:50:04;2.38;;;1.63;;
8086;SDS011;4086;54.412;9.980;2022-08-11T09:52:33;2.10;;;1.90;;
8086;SDS011;4086;54.412;9.980;2022-08-11T09:55:01;1.83;;;1.73;;
8086;SDS011;4086;54.412;9.980;2022-08-11T09:57:35;1.90;;;1.55;;
8086;SDS011;4086;54.412;9.980;2022-08-11T10:00:26;2.08;;;1.88;;
8086;SDS011;4086;54.412;9.980;2022-08-11T10:02:53;2.17;;;2.00;;
8086;SDS011;4086;54.412;9.980;2022-08-11T10:05:21;2.30;;;2.10;;
8086;SDS011;4086;54.412;9.980;2022-08-11T10:08:06;1.75;;;1.65;;
8086;SDS011;4086;54.412;9.980;2022-08-11T10:10:34;1.92;;;1.73;;
8086;SDS011;4086;54.412;9.980;2022-08-11T10:13:02;1.85;;;1.75;;
8086;SDS011;4086;54.412;9.980;2022-08-11T10:15:32;1.73;;;1.63;;
8086;SDS011;4086;54.412;9.980;2022-08-11T10:18:02;1.90;;;1.80;;
8086;SDS011;4086;54.412;9.980;2022-08-11T10:20:49;2.20;;;2.00;;
8086;SDS011;4086;54.412;9.980;2022-08-11T10:23:18;2.38;;;2.17;;
8086;SDS011;4086;54.412;9.980;2022-08-11T10:26:02;2.03;;;1.70;;
8086;SDS011;4086;54.412;9.980;2022-08-11T10:28:46;3.85;;;2.28;;
8086;SDS011;4086;54.412;9.980;2022-08-11T10:31:14;2.20;;;2.00;;
8086;SDS011;4086;54.412;9.980;2022-08-11T10:33:58;2.08;;;1.80;;
8086;SDS011;4086;54.412;9.980;2022-08-11T10:36:28;2.05;;;1.95;;
8086;SDS011;4086;54.412;9.980;2022-08-11T10:38:55;1.88;;;1.77;;
8086;SDS011;4086;54.412;9.980;2022-08-11T10:41:23;2.17;;;1.70;;
8086;SDS011;4086;54.412;9.980;2022-08-11T10:44:08;2.13;;;1.90;;
8086;SDS011;4086;54.412;9.980;2022-08-11T10:46:37;2.30;;;2.10;;
8086;SDS011;4086;54.412;9.980;2022-08-11T10:49:21;2.13;;;1.75;;
8086;SDS011;4086;54.412;9.980;2022-08-11T10:51:48;2.53;;;2.03;;
8086;SDS011;4086;54.412;9.980;2022-08-11T10:54:32;2.38;;;2.00;;
8086;SDS011;4086;54.412;9.980;2022-08-11T10:57:16;2.45;;;1.92;;
8086;SDS011;4086;54.412;9.980;2022-08-11T11:00:00;1.88;;;1.77;;
8086;SDS011;4086;54.412;9.980;2022-08-11T11:02:28;2.30;;;2.00;;
8086;SDS011;4086;54.412;9.980;2022-08-11T11:04:58;2.13;;;1.60;;
8086;SDS011;4086;54.412;9.980;2022-08-11T11:07:37;1.90;;;1.75;;
8086;SDS011;4086;54.412;9.980;2022-08-11T11:10:05;1.75;;;1.63;;
8086;SDS011;4086;54.412;9.980;2022-08-11T11:12:34;5.07;;;1.73;;
8086;SDS011;4086;54.412;9.980;2022-08-11T11:15:22;1.80;;;1.70;;
8086;SDS011;4086;54.412;9.980;2022-08-11T11:18:10;2.22;;;1.63;;
8086;SDS011;4086;54.412;9.980;2022-08-11T11:20:39;1.80;;;1.70;;
8086;SDS011;4086;54.412;9.980;2022-08-11T11:23:09;1.67;;;1.58;;
8086;SDS011;4086;54.412;9.980;2022-08-11T11:25:48;1.80;;;1.70;;
8086;SDS011;4086;54.412;9.980;2022-08-11T11:28:42;2.20;;;1.70;;
8086;SDS011;4086;54.412;9.980;2022-08-11T11:37:37;2.03;;;1.60;;
8086;SDS011;4086;54.412;9.980;2022-08-11T11:40:07;1.50;;;1.40;;
8086;SDS011;4086;54.412;9.980;2022-08-11T11:42:35;1.50;;;1.50;;
8086;SDS011;4086;54.412;9.980;2022-08-11T11:45:02;1.55;;;1.55;;
8086;SDS011;4086;54.412;9.980;2022-08-11T11:47:30;1.70;;;1.60;;
8086;SDS011;4086;54.412;9.980;2022-08-11T11:49:57;1.48;;;1.35;;
8086;SDS011;4086;54.412;9.980;2022-08-11T11:52:24;2.28;;;1.88;;
8086;SDS011;4086;54.412;9.980;2022-08-11T11:54:54;1.77;;;1.67;;
8086;SDS011;4086;54.412;9.980;2022-08-11T11:57:21;2.08;;;1.67;;
8086;SDS011;4086;54.412;9.980;2022-08-11T12:00:06;1.98;;;1.67;;
8086;SDS011;4086;54.412;9.980;2022-08-11T12:02:51;1.90;;;1.80;;
8086;SDS011;4086;54.412;9.980;2022-08-11T12:05:18;2.45;;;1.65;;
8086;SDS011;4086;54.412;9.980;2022-08-11T12:07:44;3.00;;;1.52;;
8086;SDS011;4086;54.412;9.980;2022-08-11T12:10:30;1.70;;;1.60;;
8086;SDS011;4086;54.412;9.980;2022-08-11T12:12:57;1.45;;;1.40;;
8086;SDS011;4086;54.412;9.980;2022-08-11T12:15:42;1.55;;;1.50;;
8086;SDS011;4086;54.412;9.980;2022-08-11T12:18:09;2.08;;;1.63;;
8086;SDS011;4086;54.412;9.980;2022-08-11T12:20:36;2.55;;;1.65;;
8086;SDS011;4086;54.412;9.980;2022-08-11T12:23:02;1.90;;;1.80;;
8086;SDS011;4086;54.412;9.980;2022-08-11T12:25:48;1.75;;;1.65;;
8086;SDS011;4086;54.412;9.980;2022-08-11T12:28:44;1.92;;;1.52;;
8086;SDS011;4086;54.412;9.980;2022-08-11T12:31:10;1.77;;;1.67;;
8086;SDS011;4086;54.412;9.980;2022-08-11T12:33:37;1.77;;;1.67;;
8086;SDS011;4086;54.412;9.980;2022-08-11T12:36:05;5.82;;;1.70;;
8086;SDS011;4086;54.412;9.980;2022-08-11T12:38:34;1.80;;;1.67;;
8086;SDS011;4086;54.412;9.980;2022-08-11T12:41:02;1.67;;;1.58;;
8086;SDS011;4086;54.412;9.980;2022-08-11T12:43:44;2.88;;;1.92;;
8086;SDS011;4086;54.412;9.980;2022-08-11T12:46:28;1.73;;;1.63;;
8086;SDS011;4086;54.412;9.980;2022-08-11T12:48:57;2.88;;;1.48;;
8086;SDS011;4086;54.412;9.980;2022-08-11T12:51:44;1.77;;;1.67;;
8086;SDS011;4086;54.412;9.980;2022-08-11T12:54:23;3.13;;;1.58;;
8086;SDS011;4086;54.412;9.980;2022-08-11T12:56:57;1.83;;;1.55;;
8086;SDS011;4086;54.412;9.980;2022-08-11T12:59:42;1.88;;;1.60;;
8086;SDS011;4086;54.412;9.980;2022-08-11T13:02:27;1.90;;;1.70;;
8086;SDS011;4086;54.412;9.980;2022-08-11T13:05:12;1.70;;;1.60;;
8086;SDS011;4086;54.412;9.980;2022-08-11T13:07:39;1.60;;;1.50;;
8086;SDS011;4086;54.412;9.980;2022-08-11T13:10:07;1.77;;;1.67;;
8086;SDS011;4086;54.412;9.980;2022-08-11T13:12:36;1.70;;;1.60;;
8086;SDS011;4086;54.412;9.980;2022-08-11T13:15:15;1.48;;;1.38;;
8086;SDS011;4086;54.412;9.980;2022-08-11T13:17:44;1.33;;;1.30;;
8086;SDS011;4086;54.412;9.980;2022-08-11T13:20:11;1.55;;;1.45;;
8086;SDS011;4086;54.412;9.980;2022-08-11T13:22:38;1.65;;;1.55;;
8086;SDS011;4086;54.412;9.980;2022-08-11T13:25:09;1.92;;;1.83;;
8086;SDS011;4086;54.412;9.980;2022-08-11T13:27:38;1.48;;;1.38;;
8086;SDS011;4086;54.412;9.980;2022-08-11T13:30:05;2.45;;;1.58;;
8086;SDS011;4086;54.412;9.980;2022-08-11T13:32:49;2.38;;;1.55;;
8086;SDS011;4086;54.412;9.980;2022-08-11T13:35:16;1.75;;;1.50;;
8086;SDS011;4086;54.412;9.980;2022-08-11T13:37:43;1.52;;;1.42;;
8086;SDS011;4086;54.412;9.980;2022-08-11T13:40:11;1.73;;;1.35;;
8086;SDS011;4086;54.412;9.980;2022-08-11T13:42:40;1.48;;;1.38;;
8086;SDS011;4086;54.412;9.980;2022-08-11T13:45:07;1.50;;;1.40;;
8086;SDS011;4086;54.412;9.980;2022-08-11T13:47:35;1.63;;;1.52;;
8086;SDS011;4086;54.412;9.980;2022-08-11T13:50:02;1.50;;;1.40;;
8086;SDS011;4086;54.412;9.980;2022-08-11T13:52:30;1.27;;;1.27;;
8086;SDS011;4086;54.412;9.980;2022-08-11T13:54:57;2.38;;;1.50;;
8086;SDS011;4086;54.412;9.980;2022-08-11T13:57:24;1.48;;;1.38;;
8086;SDS011;4086;54.412;9.980;2022-08-11T13:59:52;1.45;;;1.35;;
8086;SDS011;4086;54.412;9.980;2022-08-11T14:02:23;1.40;;;1.30;;
8086;SDS011;4086;54.412;9.980;2022-08-11T14:04:53;1.50;;;1.40;;
8086;SDS011;4086;54.412;9.980;2022-08-11T14:07:22;1.50;;;1.40;;
8086;SDS011;4086;54.412;9.980;2022-08-11T14:09:52;2.53;;;1.23;;
8086;SDS011;4086;54.412;9.980;2022-08-11T14:12:22;3.42;;;1.38;;
8086;SDS011;4086;54.412;9.980;2022-08-11T14:15:11;2.08;;;1.40;;
8086;SDS011;4086;54.412;9.980;2022-08-11T14:17:44;1.33;;;1.20;;
8086;SDS011;4086;54.412;9.980;2022-08-11T14:20:14;1.17;;;1.17;;
8086;SDS011;4086;54.412;9.980;2022-08-11T14:22:42;1.40;;;1.30;;
8086;SDS011;4086;54.412;9.980;2022-08-11T14:25:07;1.20;;;1.20;;
8086;SDS011;4086;54.412;9.980;2022-08-11T14:27:34;2.75;;;1.42;;
8086;SDS011;4086;54.412;9.980;2022-08-11T14:30:01;2.50;;;1.40;;
8086;SDS011;4086;54.412;9.980;2022-08-11T14:32:30;1.35;;;1.33;;
8086;SDS011;4086;54.412;9.980;2022-08-11T14:34:56;1.10;;;1.10;;
8086;SDS011;4086;54.412;9.980;2022-08-11T14:37:24;1.40;;;1.30;;
8086;SDS011;4086;54.412;9.980;2022-08-11T14:39:51;1.20;;;1.20;;
8086;SDS011;4086;54.412;9.980;2022-08-11T14:42:19;1.13;;;1.13;;
8086;SDS011;4086;54.412;9.980;2022-08-11T14:45:04;2.40;;;1.20;;
8086;SDS011;4086;54.412;9.980;2022-08-11T14:48:04;3.15;;;1.65;;
8086;SDS011;4086;54.412;9.980;2022-08-11T14:50:34;1.88;;;1.17;;
8086;SDS011;4086;54.412;9.980;2022-08-11T14:53:01;1.25;;;1.25;;
8086;SDS011;4086;54.412;9.980;2022-08-11T14:55:30;1.23;;;1.23;;
8086;SDS011;4086;54.412;9.980;2022-08-11T14:58:16;1.23;;;1.20;;
8086;SDS011;4086;54.412;9.980;2022-08-11T15:00:43;1.40;;;1.38;;
8086;SDS011;4086;54.412;9.980;2022-08-11T15:03:13;1.50;;;1.40;;
8086;SDS011;4086;54.412;9.980;2022-08-11T15:05:40;1.50;;;1.40;;
8086;SDS011;4086;54.412;9.980;2022-08-11T15:08:12;4.13;;;1.30;;
8086;SDS011;4086;54.412;9.980;2022-08-11T15:10:38;1.15;;;1.15;;
8086;SDS011;4086;54.412;9.980;2022-08-11T15:13:05;1.05;;;1.05;;
8086;SDS011;4086;54.412;9.980;2022-08-11T15:15:32;1.40;;;1.30;;
8086;SDS011;4086;54.412;9.980;2022-08-11T15:18:18;1.30;;;1.20;;
8086;SDS011;4086;54.412;9.980;2022-08-11T15:20:47;1.60;;;1.20;;
8086;SDS011;4086;54.412;9.980;2022-08-11T15:23:32;1.20;;;1.20;;
8086;SDS011;4086;54.412;9.980;2022-08-11T15:26:13;2.08;;;1.33;;
8086;SDS011;4086;54.412;9.980;2022-08-11T15:28:48;1.60;;;1.50;;
8086;SDS011;4086;54.412;9.980;2022-08-11T15:31:33;1.60;;;1.50;;
8086;SDS011;4086;54.412;9.980;2022-08-11T15:34:20;1.50;;;1.40;;
8086;SDS011;4086;54.412;9.980;2022-08-11T15:37:07;1.50;;;1.40;;
8086;SDS011;4086;54.412;9.980;2022-08-11T15:39:56;1.50;;;1.40;;
8086;SDS011;4086;54.412;9.980;2022-08-11T15:42:49;1.45;;;1.30;;
8086;SDS011;4086;54.412;9.980;2022-08-11T15:45:37;1.30;;;1.30;;
8086;SDS011;4086;54.412;9.980;2022-08-11T15:48:15;1.50;;;1.40;;
8086;SDS011;4086;54.412;9.980;2022-08-11T15:50:47;1.40;;;1.30;;
8086;SDS011;4086;54.412;9.980;2022-08-11T15:53:19;2.08;;;1.15;;
8086;SDS011;4086;54.412;9.980;2022-08-11T15:55:49;1.73;;;1.30;;
8086;SDS011;4086;54.412;9.980;2022-08-11T15:58:16;1.50;;;1.40;;
8086;SDS011;4086;54.412;9.980;2022-08-11T16:01:01;1.38;;;1.10;;
8086;SDS011;4086;54.412;9.980;2022-08-11T16:03:52;1.45;;;1.33;;
8086;SDS011;4086;54.412;9.980;2022-08-11T16:06:43;3.13;;;1.50;;
8086;SDS011;4086;54.412;9.980;2022-08-11T16:09:13;1.35;;;1.23;;
8086;SDS011;4086;54.412;9.980;2022-08-11T16:11:41;1.70;;;1.60;;
8086;SDS011;4086;54.412;9.980;2022-08-11T16:14:09;1.45;;;1.40;;
8086;SDS011;4086;54.412;9.980;2022-08-11T16:16:54;2.08;;;1.40;;
8086;SDS011;4086;54.412;9.980;2022-08-11T16:19:22;1.80;;;1.70;;
8086;SDS011;4086;54.412;9.980;2022-08-11T16:21:51;1.58;;;1.33;;
8086;SDS011;4086;54.412;9.980;2022-08-11T16:24:18;1.65;;;1.40;;
8086;SDS011;4086;54.412;9.980;2022-08-11T16:26:45;1.98;;;1.50;;
8086;SDS011;4086;54.412;9.980;2022-08-11T16:29:13;1.58;;;1.40;;
8086;SDS011;4086;54.412;9.980;2022-08-11T16:31:39;1.63;;;1.50;;
8086;SDS011;4086;54.412;9.980;2022-08-11T16:34:06;1.42;;;1.30;;
8086;SDS011;4086;54.412;9.980;2022-08-11T16:36:55;1.92;;;1.38;;
8086;SDS011;4086;54.412;9.980;2022-08-11T16:39:41;2.67;;;1.55;;
8086;SDS011;4086;54.412;9.980;2022-08-11T16:42:08;1.55;;;1.38;;
8086;SDS011;4086;54.412;9.980;2022-08-11T16:44:53;1.98;;;1.30;;
8086;SDS011;4086;54.412;9.980;2022-08-11T16:47:38;1.38;;;1.30;;
8086;SDS011;4086;54.412;9.980;2022-08-11T16:50:06;1.60;;;1.50;;
8086;SDS011;4086;54.412;9.980;2022-08-11T16:52:34;3.15;;;1.30;;
8086;SDS011;4086;54.412;9.980;2022-08-11T16:55:02;1.40;;;1.30;;
8086;SDS011;4086;54.412;9.980;2022-08-11T16:57:29;1.45;;;1.30;;
8086;SDS011;4086;54.412;9.980;2022-08-11T17:00:18;1.38;;;1.27;;
8086;SDS011;4086;54.412;9.980;2022-08-11T17:02:46;1.33;;;1.23;;